Data for 04/06/2018

Time Sea-Level Adjusted Pressure Absolute Pressure Temperature Relative Humidity Dew Point   
(mb) (inHg) (mb) (inHg) (C) (F) (%) (C) (F)
00:05 1018 30.06 848 25.04 -7.3 18.8 74 -11.2 11.8
00:10 1018 30.06 848 25.04 -7.3 18.8 74 -11.2 11.8
00:15 1018 30.06 848 25.04 -7.3 18.8 74 -11.2 11.9
00:20 1018 30.06 848 25.04 -7.4 18.6 75 -11.1 12
00:25 1018 30.06 848 25.04 -7.5 18.5 76 -11 12.2
00:30 1018 30.06 848 25.04 -7.6 18.3 77 -11 12.2
00:35 1018 30.06 848 25.04 -7.7 18.2 78 -10.8 12.5
00:40 1019 30.09 848 25.04 -7.7 18.1 78 -10.9 12.4
00:45 1019 30.09 848 25.04 -7.8 18 78 -10.9 12.4
00:50 1019 30.09 848 25.04 -7.8 18 77 -11.1 12
00:55 1019 30.09 848 25.04 -7.8 18.1 77 -11.1 12
01:00 1019 30.09 848 25.04 -7.8 18 78 -11 12.2
01:05 1019 30.09 848 25.04 -7.8 17.9 78 -10.9 12.3
01:10 1019 30.09 848 25.04 -7.8 17.9 78 -11.1 12.1
01:15 1019 30.09 848 25.04 -7.9 17.8 79 -11 12.3
01:20 1019 30.09 848 25.04 -7.8 17.9 77 -11.2 11.8
01:25 1019 30.09 848 25.04 -7.8 18 76 -11.3 11.6
01:30 1019 30.09 848 25.04 -7.8 18 77 -11.2 11.9
01:35 1019 30.09 848 25.04 -7.8 17.9 79 -10.9 12.3
01:40 1019 30.09 848 25.04 -7.9 17.8 80 -10.8 12.6
01:45 1019 30.09 848 25.04 -8 17.7 81 -10.7 12.8
01:50 1019 30.09 848 25.04 -8.1 17.4 82 -10.6 13
01:55 1019 30.09 848 25.04 -8.1 17.4 82 -10.7 12.8
02:00 1019 30.09 848 25.04 -8.1 17.4 82 -10.7 12.8
02:05 1019 30.09 849 25.07 -8.1 17.4 81 -10.8 12.6
02:10 1019 30.09 848 25.04 -8 17.5 81 -10.8 12.6
02:15 1019 30.09 848 25.04 -8 17.6 81 -10.8 12.6
02:20 1019 30.09 848 25.04 -8 17.7 79 -10.9 12.3
02:25 1019 30.09 848 25.04 -7.9 17.7 78 -11.1 12.1
02:30 1019 30.09 848 25.04 -7.9 17.7 78 -11.2 11.8
02:35 1019 30.09 848 25.04 -7.9 17.7 77 -11.3 11.6
02:40 1019 30.09 848 25.04 -7.9 17.7 76 -11.5 11.3
02:45 1019 30.09 848 25.04 -7.9 17.8 76 -11.5 11.3
02:50 1019 30.09 848 25.04 -7.9 17.8 75 -11.6 11.2
02:55 1019 30.09 848 25.04 -8 17.7 75 -11.7 11
03:00 1019 30.09 848 25.04 -8 17.7 75 -11.7 10.9
03:05 1019 30.09 848 25.04 -8 17.7 75 -11.6 11.1
03:10 1019 30.09 848 25.04 -8.1 17.4 77 -11.4 11.5
03:15 1019 30.09 848 25.04 -8.2 17.3 79 -11.3 11.7
03:20 1019 30.09 848 25.04 -8.3 17 79 -11.4 11.5
03:25 1019 30.09 848 25.04 -8.3 17 79 -11.4 11.6
03:30 1019 30.09 848 25.04 -8.3 17 78 -11.5 11.3
03:35 1019 30.09 848 25.04 -8.3 17.1 77 -11.6 11.1
03:40 1019 30.09 848 25.04 -8.3 17.1 77 -11.7 11
03:45 1019 30.09 848 25.04 -8.3 17 77 -11.7 10.9
03:50 1019 30.09 848 25.04 -8.4 17 76 -11.9 10.6
03:55 1019 30.09 848 25.04 -8.3 17 75 -12 10.4
04:00 1019 30.09 848 25.04 -8.3 17 73 -12.3 9.8
04:05 1019 30.09 848 25.04 -8.4 17 73 -12.4 9.7
04:10 1019 30.09 848 25.04 -8.4 16.9 72 -12.6 9.3
04:15 1019 30.09 848 25.04 -8.4 16.9 72 -12.6 9.3
04:20 1019 30.09 848 25.04 -8.4 16.9 71 -12.9 8.9
04:25 1019 30.09 848 25.04 -8.4 16.9 70 -13 8.6
04:30 1019 30.09 848 25.04 -8.4 16.9 70 -12.9 8.8
04:35 1019 30.09 849 25.07 -8.4 16.9 69 -13 8.6
04:40 1019 30.09 849 25.07 -8.5 16.8 70 -12.9 8.8
04:45 1019 30.09 849 25.07 -8.5 16.7 69 -13.2 8.3
04:50 1019 30.09 849 25.07 -8.5 16.7 70 -13 8.6
04:55 1019 30.09 848 25.04 -8.6 16.6 71 -13 8.6
05:00 1019 30.09 848 25.04 -8.6 16.5 71 -13 8.6
05:05 1019 30.09 848 25.04 -8.7 16.3 72 -12.9 8.8
05:10 1019 30.09 848 25.04 -8.8 16.1 72 -12.9 8.7
05:15 1019 30.09 848 25.04 -8.9 16 74 -12.7 9.1
05:20 1019 30.09 848 25.04 -9.1 15.7 76 -12.5 9.5
05:25 1019 30.09 849 25.07 -9.2 15.4 78 -12.5 9.6
05:30 1019 30.09 849 25.07 -9.4 15.1 79 -12.3 9.9
05:35 1019 30.09 848 25.04 -9.5 15 79 -12.5 9.6
05:40 1019 30.09 848 25.04 -9.5 14.9 79 -12.6 9.4
05:45 1019 30.09 848 25.04 -9.6 14.8 79 -12.6 9.3
05:50 1019 30.09 848 25.04 -9.7 14.6 78 -12.7 9.1
05:55 1019 30.09 848 25.04 -9.6 14.7 76 -13.2 8.3
06:00 1019 30.09 848 25.04 -9.6 14.7 76 -13 8.5
06:05 1019 30.09 848 25.04 -9.6 14.7 75 -13.3 8.1
06:10 1019 30.09 848 25.04 -9.6 14.7 73 -13.6 7.6
06:15 1019 30.09 848 25.04 -9.6 14.8 73 -13.5 7.6
06:20 1019 30.09 848 25.04 -9.6 14.7 73 -13.7 7.4
06:25 1019 30.09 848 25.04 -9.7 14.5 73 -13.8 7.2
06:30 1019 30.09 848 25.04 -9.9 14.3 73 -13.9 7
06:35 1019 30.09 848 25.04 -9.9 14.2 73 -13.8 7.1
06:40 1019 30.09 848 25.04 -10 14.1 72 -14 6.8
06:45 1019 30.09 848 25.04 -10.1 13.9 72 -14.2 6.5
06:50 1019 30.09 848 25.04 -10.1 13.8 71 -14.4 6.1
06:55 1019 30.09 848 25.04 -10.2 13.7 71 -14.5 5.9
07:00 1019 30.09 848 25.04 -10.2 13.7 71 -14.5 6
07:05 1019 30.09 848 25.04 -10.2 13.6 69 -14.8 5.3
07:10 1019 30.09 849 25.07 -10.3 13.5 68 -15.1 4.8
07:15 1019 30.09 849 25.07 -10.3 13.4 69 -14.9 5.1
07:20 1020 30.12 849 25.07 -10.4 13.3 68 -15.1 4.8
07:25 1019 30.09 849 25.07 -10.4 13.2 68 -15.3 4.4
07:30 1019 30.09 849 25.07 -10.5 13.2 68 -15.2 4.6
07:35 1020 30.12 849 25.07 -10.6 12.9 69 -15.2 4.6
07:40 1020 30.12 849 25.07 -10.7 12.8 69 -15.2 4.6
07:45 1020 30.12 849 25.07 -10.7 12.8 68 -15.5 4
07:50 1019 30.09 849 25.07 -10.7 12.7 68 -15.6 3.9
07:55 1019 30.09 849 25.07 -10.7 12.7 67 -15.6 3.8
08:00 1019 30.09 849 25.07 -10.8 12.6 68 -15.7 3.8
08:05 1019 30.09 849 25.07 -10.8 12.5 68 -15.6 4
08:10 1019 30.09 849 25.07 -10.8 12.6 68 -15.6 4
08:15 1019 30.09 849 25.07 -10.8 12.5 68 -15.7 3.8
08:20 1019 30.09 849 25.07 -10.9 12.5 68 -15.7 3.7
08:25 1020 30.12 849 25.07 -10.8 12.6 68 -15.7 3.8
08:30 1019 30.09 849 25.07 -10.8 12.5 68 -15.6 4
08:35 1020 30.12 849 25.07 -10.8 12.6 69 -15.5 4.2
08:40 1020 30.12 849 25.07 -10.7 12.7 68 -15.6 3.8
08:45 1020 30.12 849 25.07 -10.8 12.6 68 -15.6 3.9
08:50 1020 30.12 849 25.07 -10.8 12.7 68 -15.6 3.9
08:55 1020 30.12 849 25.07 -10.7 12.8 67 -15.6 3.9
09:00 1020 30.12 849 25.07 -10.7 12.7 66 -15.9 3.3
09:05 1020 30.12 849 25.07 -10.7 12.7 65 -16 3.2
09:10 1020 30.12 849 25.07 -10.6 12.8 64 -16.2 2.8
09:15 1020 30.12 849 25.07 -10.7 12.7 65 -16 3.1
09:20 1020 30.12 849 25.07 -10.6 12.8 65 -16 3.1
09:25 1020 30.12 849 25.07 -10.6 12.9 64 -16.2 2.9
09:30 1020 30.12 849 25.07 -10.6 13 65 -15.9 3.4
09:35 1020 30.12 849 25.07 -10.6 12.9 66 -15.8 3.6
09:40 1020 30.12 849 25.07 -10.7 12.8 66 -15.9 3.3
09:45 1020 30.12 849 25.07 -10.6 12.9 67 -15.6 3.9
09:50 1020 30.12 849 25.07 -10.7 12.8 65 -16 3.2
09:55 1020 30.12 849 25.07 -10.7 12.8 65 -16.1 3
10:00 1020 30.12 849 25.07 -10.6 12.8 64 -16.2 2.8
10:05 1020 30.12 849 25.07 -10.8 12.5 65 -16.2 2.9
10:10 1020 30.12 849 25.07 -10.9 12.4 65 -16.2 2.8
10:15 1020 30.12 849 25.07 -10.9 12.4 65 -16.3 2.7
10:20 1020 30.12 849 25.07 -10.7 12.7 65 -16.1 2.9
10:25 1020 30.12 849 25.07 -10.8 12.5 67 -15.8 3.5
10:30 1020 30.12 849 25.07 -11 12.3 70 -15.5 4.2
10:35 1020 30.12 849 25.07 -10.9 12.5 69 -15.4 4.3
10:40 1020 30.12 849 25.07 -11 12.3 70 -15.3 4.4
10:45 1020 30.12 849 25.07 -11 12.2 73 -15 5
10:50 1020 30.12 849 25.07 -11 12.3 74 -14.8 5.3
10:55 1020 30.12 849 25.07 -10.8 12.5 71 -15.1 4.8
11:00 1020 30.12 849 25.07 -10.6 13 68 -15.4 4.3
11:05 1020 30.12 849 25.07 -10.2 13.7 64 -15.7 3.8
11:10 1020 30.12 849 25.07 -10.3 13.6 67 -15.4 4.4
11:15 1020 30.12 849 25.07 -10.1 13.8 63 -15.8 3.5
11:20 1020 30.12 849 25.07 -10.1 13.8 62 -16 3.2
11:25 1020 30.12 849 25.07 -10.1 13.8 63 -15.9 3.3
11:30 1020 30.12 849 25.07 -10 14.1 60 -16.3 2.7
11:35 1020 30.12 849 25.07 -10 14 64 -15.7 3.8
11:40 1020 30.12 849 25.07 -10 14 66 -15.2 4.7
11:45 1020 30.12 849 25.07 -10.1 13.8 67 -15.1 4.9
11:50 1020 30.12 849 25.07 -10.2 13.7 66 -15.4 4.2
11:55 1020 30.12 849 25.07 -10 14 68 -14.9 5.1
12:00 1020 30.12 849 25.07 -9.8 14.4 67 -14.9 5.2
12:05 1020 30.12 849 25.07 -9.5 14.9 67 -14.5 5.9
12:10 1020 30.12 849 25.07 -9.5 15 65 -14.8 5.3
12:15 1020 30.12 849 25.07 -9.4 15.1 66 -14.6 5.8
12:20 1020 30.12 849 25.07 -8.9 16 62 -15 5
12:25 1019 30.09 849 25.07 -8.6 16.6 63 -14.4 6
12:30 1019 30.09 849 25.07 -8.5 16.7 62 -14.6 5.7
12:35 1019 30.09 848 25.04 -8.4 16.9 60 -14.8 5.3
12:40 1019 30.09 848 25.04 -8.2 17.2 58 -15.2 4.7
12:45 1019 30.09 848 25.04 -8.4 16.8 60 -15 5.1
12:50 1019 30.09 848 25.04 -8.2 17.2 58 -15.2 4.7
12:55 1019 30.09 848 25.04 -7.8 18 57 -14.8 5.4
13:00 1019 30.09 848 25.04 -7.9 17.9 58 -14.7 5.5
13:05 1019 30.09 848 25.04 -7.8 17.9 56 -15.1 4.8
13:10 1019 30.09 848 25.04 -7.6 18.3 57 -14.7 5.6
13:15 1019 30.09 848 25.04 -7.2 19 56 -14.7 5.6
13:20 1019 30.09 848 25.04 -6.6 20.2 53 -14.7 5.5
13:25 1019 30.09 848 25.04 -6.4 20.4 55 -14.1 6.6
13:30 1019 30.09 848 25.04 -6.2 20.8 54 -14 6.8
13:35 1019 30.09 848 25.04 -6.2 20.9 55 -13.9 7
13:40 1019 30.09 848 25.04 -5.9 21.3 53 -13.9 6.9
13:45 1019 30.09 848 25.04 -5.7 21.7 53 -13.9 7
13:50 1019 30.09 848 25.04 -5.7 21.7 53 -13.8 7.2
13:55 1019 30.09 848 25.04 -5.7 21.7 53 -13.9 7
14:00 1019 30.09 848 25.04 -5.3 22.5 52 -13.6 7.6
14:05 1019 30.09 848 25.04 -4.8 23.4 50 -13.6 7.5
14:10 1019 30.09 848 25.04 -4.8 23.3 53 -13 8.5
14:15 1019 30.09 848 25.04 -5.2 22.6 53 -13.5 7.7
14:20 1019 30.09 848 25.04 -4.2 24.4 50 -13.3 8.1
14:25 1018 30.06 848 25.04 -3.6 25.5 49 -12.9 8.7
14:30 1018 30.06 847 25.01 -4.7 23.6 52 -13 8.6
14:35 1018 30.06 847 25.01 -4.6 23.7 49 -13.8 7.2
14:40 1018 30.06 847 25.01 -4.1 24.6 51 -12.7 9.1
14:45 1018 30.06 847 25.01 -4.6 23.8 53 -12.8 8.9
14:50 1018 30.06 847 25.01 -4.8 23.4 52 -13.2 8.3
14:55 1018 30.06 847 25.01 -4.5 23.9 51 -13.3 8.1
15:00 1018 30.06 847 25.01 -4.2 24.4 54 -12.2 10
15:05 1018 30.06 847 25.01 -3.8 25.1 52 -12.4 9.7
15:10 1018 30.06 847 25.01 -3.8 25.2 53 -12.1 10.1
15:15 1018 30.06 847 25.01 -4.2 24.5 53 -12.3 9.8
15:20 1018 30.06 847 25.01 -4 24.9 53 -12.2 10.1
15:25 1018 30.06 847 25.01 -4.3 24.3 53 -12.5 9.5
15:30 1018 30.06 847 25.01 -3.7 25.3 49 -12.9 8.9
15:35 1018 30.06 847 25.01 -3.6 25.4 54 -11.6 11.2
15:40 1018 30.06 847 25.01 -3.7 25.4 52 -12.1 10.3
15:45 1018 30.06 847 25.01 -3.5 25.8 51 -12.3 9.8
15:50 1018 30.06 847 25.01 -4 24.9 53 -12.2 10
15:55 1017 30.03 847 25.01 -4.2 24.4 54 -12.3 9.9
16:00 1017 30.03 847 25.01 -4.3 24.2 54 -12.3 9.8
16:05 1017 30.03 847 25.01 -4.2 24.4 54 -12.1 10.2
16:10 1017 30.03 847 25.01 -4 24.9 53 -12.1 10.2
16:15 1017 30.03 846 24.98 -3.2 26.2 53 -11.5 11.3
16:20 1017 30.03 846 24.98 -3.2 26.3 51 -11.9 10.6
16:25 1017 30.03 846 24.98 -3 26.6 51 -11.9 10.6
16:30 1017 30.03 846 24.98 -3.2 26.3 52 -11.6 11.1
16:35 1017 30.03 846 24.98 -3.3 26 55 -11.2 11.9
16:40 1017 30.03 846 24.98 -3.3 26 53 -11.5 11.2
16:45 1017 30.03 846 24.98 -3.4 25.9 54 -11.5 11.4
16:50 1017 30.03 846 24.98 -3.4 25.9 55 -11.1 12
16:55 1017 30.03 846 24.98 -3.6 25.6 55 -11.4 11.5
17:00 1017 30.03 846 24.98 -3.8 25.1 55 -11.7 11
17:05 1017 30.03 846 24.98 -3.7 25.4 56 -11.2 11.8
17:10 1017 30.03 846 24.98 -3.6 25.5 56 -11.1 12.1
17:15 1017 30.03 846 24.98 -2.9 26.7 54 -10.9 12.3
17:20 1017 30.03 846 24.98 -2.7 27.2 55 -10.5 13.2
17:25 1017 30.03 846 24.98 -2.9 26.8 55 -10.7 12.8
17:30 1017 30.03 846 24.98 -2.8 27 59 -9.6 14.7
17:35 1017 30.03 846 24.98 -2.9 26.8 63 -9 15.8
17:40 1017 30.03 846 24.98 -3.4 25.9 65 -9.1 15.6
17:45 1017 30.03 846 24.98 -3.1 26.4 64 -9.1 15.7
17:50 1017 30.03 846 24.98 -3.4 25.8 66 -9 15.9
17:55 1017 30.03 846 24.98 -3.4 25.8 64 -9.2 15.4
18:00 1017 30.03 846 24.98 -3.3 26.1 59 -10.3 13.4
18:05 1017 30.03 846 24.98 -3.4 26 59 -10.3 13.5
18:10 1017 30.03 846 24.98 -3.5 25.7 57 -10.7 12.7
18:15 1017 30.03 846 24.98 -3.6 25.5 59 -10.5 13.1
18:20 1017 30.03 846 24.98 -3.3 26.1 58 -10.4 13.2
18:25 1017 30.03 846 24.98 -3 26.6 57 -10.5 13.2
18:30 1016 30 846 24.98 -3.8 25.1 60 -10.4 13.2
18:35 1016 30 846 24.98 -3.8 25.2 59 -10.7 12.7
18:40 1016 30 846 24.98 -3.9 25 60 -10.7 12.8
18:45 1016 30 846 24.98 -4.1 24.5 61 -10.7 12.8
18:50 1016 30 846 24.98 -4.8 23.4 62 -11 12.2
18:55 1016 30 845 24.95 -4.9 23.2 62 -11.1 11.9
19:00 1016 30 845 24.95 -4.9 23.2 63 -10.9 12.3
19:05 1016 30 845 24.95 -5.3 22.4 64 -11.2 11.9
19:10 1016 30 845 24.95 -5.5 22 65 -11.1 12
19:15 1016 30 845 24.95 -5.8 21.5 65 -11.3 11.7
19:20 1016 30 845 24.95 -5.9 21.3 66 -11.4 11.6
19:25 1016 30 845 24.95 -6.1 21 67 -11.3 11.7
19:30 1016 30 845 24.95 -6.2 20.9 67 -11.4 11.5
19:35 1016 30 845 24.95 -6.2 20.9 67 -11.4 11.5
19:40 1016 30 845 24.95 -6.1 21 67 -11.4 11.5
19:45 1016 30 845 24.95 -6.2 20.9 67 -11.3 11.7
19:50 1016 30 845 24.95 -6.3 20.7 67 -11.4 11.6
19:55 1016 30 845 24.95 -6.3 20.6 68 -11.2 11.8
20:00 1016 30 845 24.95 -6.3 20.7 68 -11.2 11.8
20:05 1016 30 845 24.95 -6.2 20.8 69 -11 12.2
20:10 1016 30 845 24.95 -6.4 20.5 69 -11.1 12
20:15 1016 30 845 24.95 -6.6 20.1 69 -11.3 11.7
20:20 1016 30 845 24.95 -6.6 20.1 69 -11.4 11.5
20:25 1016 30 845 24.95 -6.7 19.9 69 -11.4 11.4
20:30 1016 30 845 24.95 -7 19.5 69 -11.7 11
20:35 1015 29.97 845 24.95 -7 19.4 69 -11.8 10.8
20:40 1015 29.97 844 24.92 -7.1 19.2 70 -11.7 10.9
20:45 1015 29.97 844 24.92 -7.1 19.2 70 -11.7 11
20:50 1015 29.97 844 24.92 -7.1 19.2 70 -11.7 10.9
20:55 1015 29.97 844 24.92 -7.2 19.1 69 -11.9 10.7
21:00 1015 29.97 845 24.95 -7.1 19.2 70 -11.8 10.8
21:05 1015 29.97 845 24.95 -7.1 19.2 70 -11.7 11
21:10 1016 30 845 24.95 -7 19.3 70 -11.6 11.2
21:15 1016 30 845 24.95 -7 19.4 70 -11.6 11.2
21:20 1016 30 845 24.95 -7 19.5 70 -11.5 11.3
21:25 1016 30 845 24.95 -6.9 19.5 70 -11.5 11.4
21:30 1016 30 845 24.95 -6.9 19.5 71 -11.4 11.4
21:35 1016 30 845 24.95 -7 19.3 71 -11.5 11.4
21:40 1016 30 845 24.95 -7.1 19.2 71 -11.5 11.2
21:45 1016 30 845 24.95 -7.2 19.1 71 -11.6 11.1
21:50 1016 30 845 24.95 -7.3 19 71 -11.7 10.9
21:55 1016 30 845 24.95 -7.4 18.7 71 -11.7 10.9
22:00 1016 30 845 24.95 -7.4 18.6 71 -11.9 10.6
22:05 1016 30 845 24.95 -7.5 18.6 71 -11.8 10.7
22:10 1016 30 845 24.95 -7.6 18.3 72 -11.9 10.6
22:15 1016 30 845 24.95 -7.7 18.2 72 -12 10.5
22:20 1016 30 845 24.95 -7.8 18 72 -12 10.3
22:25 1016 30 845 24.95 -7.8 17.9 72 -12 10.4
22:30 1016 30 845 24.95 -7.9 17.8 72 -12.1 10.2
22:35 1016 30 845 24.95 -8 17.7 73 -12 10.4
22:40 1016 30 845 24.95 -7.9 17.7 72 -12.1 10.3
22:45 1016 30 845 24.95 -7.9 17.8 72 -12.1 10.2
22:50 1016 30 845 24.95 -7.9 17.8 73 -12 10.4
22:55 1016 30 845 24.95 -8 17.7 72 -12.3 9.9
23:00 1016 30 845 24.95 -8.1 17.5 72 -12.2 10.1
23:05 1016 30 845 24.95 -8.1 17.4 73 -12.2 10
23:10 1016 30 845 24.95 -8.1 17.4 73 -12.2 10
23:15 1016 30 845 24.95 -7.9 17.7 72 -12.2 10.1
23:20 1016 30 845 24.95 -7.9 17.8 71 -12.2 10
23:25 1016 30 845 24.95 -8 17.6 72 -12.2 10
23:30 1016 30 845 24.95 -8 17.6 72 -12.3 9.9
23:35 1016 30 845 24.95 -8 17.7 72 -12.1 10.2
23:40 1016 30 845 24.95 -8 17.5 73 -12.1 10.2
23:45 1016 30 845 24.95 -8 17.7 73 -12 10.3
23:50 1016 30 845 24.95 -7.9 17.7 72 -12.1 10.2
23:55 1015 29.97 845 24.95 -7.9 17.8 72 -12.1 10.3
24:00 1016 30 845 24.95 -7.9 17.8 72 -12.1 10.3